createdAt,value
2022-08-07T00:01:43.312Z,16.17
2022-08-07T00:06:10.698Z,16.15
2022-08-07T00:11:10.780Z,16.14
2022-08-07T00:16:11.705Z,16.11
2022-08-07T00:21:56.023Z,16.06
2022-08-07T00:26:31.156Z,16.00
2022-08-07T00:31:17.836Z,15.94
2022-08-07T00:36:17.706Z,15.90
2022-08-07T00:41:17.719Z,15.85
2022-08-07T00:46:17.932Z,15.79
2022-08-07T00:51:17.803Z,15.74
2022-08-07T00:56:17.833Z,15.68
2022-08-07T01:01:17.924Z,15.63
2022-08-07T01:06:17.743Z,15.60
2022-08-07T01:12:23.261Z,15.59
2022-08-07T01:16:30.595Z,15.57
2022-08-07T01:21:26.128Z,15.55
2022-08-07T01:26:27.757Z,15.52
2022-08-07T01:31:42.472Z,15.49
2022-08-07T01:36:36.279Z,15.44
2022-08-07T01:41:36.877Z,15.39
2022-08-07T01:46:38.893Z,15.37
2022-08-07T01:52:01.663Z,15.36
2022-08-07T01:56:42.375Z,15.38
2022-08-07T02:02:02.027Z,15.40
2022-08-07T02:06:45.962Z,15.41
2022-08-07T02:12:04.541Z,15.40
2022-08-07T02:16:51.180Z,15.38
2022-08-07T02:21:56.018Z,15.34
2022-08-07T02:26:53.644Z,15.27
2022-08-07T02:31:54.820Z,15.17
2022-08-07T02:36:55.502Z,15.08
2022-08-07T02:41:57.013Z,14.99
2022-08-07T02:46:56.908Z,14.91
2022-08-07T02:51:57.354Z,14.83
2022-08-07T02:56:56.936Z,14.73
2022-08-07T03:01:57.665Z,14.60
2022-08-07T03:07:03.184Z,14.47
2022-08-07T03:12:03.290Z,14.33
2022-08-07T03:17:04.528Z,14.19
2022-08-07T03:22:08.019Z,14.04
2022-08-07T03:27:30.588Z,13.90
2022-08-07T03:32:19.985Z,13.78
2022-08-07T03:37:20.659Z,13.67
2022-08-07T03:42:23.329Z,13.57
2022-08-07T03:47:23.045Z,13.47
2022-08-07T03:52:26.835Z,13.39
2022-08-07T03:58:34.574Z,13.32
2022-08-07T04:02:27.246Z,13.25
2022-08-07T04:07:35.854Z,13.19
2022-08-07T04:12:31.096Z,13.14
2022-08-07T04:18:31.023Z,13.11
2022-08-07T04:22:34.888Z,13.10
2022-08-07T04:27:35.786Z,13.09
2022-08-07T04:32:37.602Z,13.08
2022-08-07T04:37:52.882Z,13.09
2022-08-07T04:42:41.351Z,13.10
2022-08-07T04:48:00.526Z,13.14
2022-08-07T04:52:50.868Z,13.19
2022-08-07T04:58:12.972Z,13.25
2022-08-07T05:02:49.069Z,13.32
2022-08-07T05:07:51.686Z,13.40
2022-08-07T05:12:57.167Z,13.51
2022-08-07T05:17:55.517Z,13.64
2022-08-07T05:22:56.389Z,13.78
2022-08-07T05:28:16.215Z,13.94
2022-08-07T05:32:59.581Z,14.12
2022-08-07T05:38:09.795Z,14.31
2022-08-07T05:43:03.271Z,14.49
2022-08-07T05:48:07.070Z,14.67
2022-08-07T05:53:07.355Z,14.87
2022-08-07T05:58:09.033Z,15.07
2022-08-07T06:03:11.335Z,15.32
2022-08-07T06:08:30.358Z,15.72
2022-08-07T06:13:17.507Z,16.51
2022-08-07T06:18:17.243Z,17.76
2022-08-07T06:23:46.791Z,19.18
2022-08-07T06:28:27.371Z,21.08
2022-08-07T06:33:23.691Z,23.86
2022-08-07T06:38:24.506Z,26.82
2022-08-07T06:43:39.237Z,29.43
2022-08-07T06:48:33.271Z,31.79
2022-08-07T06:54:11.651Z,33.91
2022-08-07T06:58:36.971Z,35.60
2022-08-07T07:03:48.890Z,37.33
2022-08-07T07:08:46.616Z,39.17
2022-08-07T07:13:57.374Z,40.76
2022-08-07T07:18:47.990Z,42.27
2022-08-07T07:24:05.970Z,43.91
2022-08-07T07:29:39.594Z,45.53
2022-08-07T07:33:56.505Z,46.92
2022-08-07T07:38:52.036Z,48.03
2022-08-07T07:44:17.931Z,49.11
2022-08-07T07:49:08.811Z,50.21
2022-08-07T07:53:58.082Z,51.23
2022-08-07T07:58:59.039Z,51.92
2022-08-07T08:04:10.873Z,52.48
2022-08-07T08:09:02.137Z,53.02
2022-08-07T08:14:02.125Z,53.46
2022-08-07T08:19:09.886Z,53.95
2022-08-07T08:24:36.226Z,54.26
2022-08-07T08:29:24.135Z,54.51
2022-08-07T08:34:27.038Z,54.73
2022-08-07T08:39:39.452Z,54.87
2022-08-07T08:44:31.381Z,55.22
2022-08-07T08:49:32.772Z,55.79
2022-08-07T08:54:34.152Z,56.28
2022-08-07T08:59:42.009Z,56.66
2022-08-07T09:04:37.191Z,57.13
2022-08-07T09:09:37.139Z,57.37
2022-08-07T09:14:37.894Z,56.98
2022-08-07T09:19:51.183Z,56.23
2022-08-07T09:24:59.037Z,55.98
2022-08-07T09:30:06.614Z,55.83
2022-08-07T09:34:44.167Z,55.88
2022-08-07T09:39:54.944Z,55.85
2022-08-07T09:47:55.116Z,55.55
2022-08-07T09:50:00.936Z,54.99
2022-08-07T09:54:52.190Z,54.30
2022-08-07T10:00:00.857Z,53.41
2022-08-07T10:04:55.012Z,52.42
2022-08-07T10:10:01.082Z,51.57
2022-08-07T10:14:58.278Z,50.67
2022-08-07T10:19:58.287Z,49.64
2022-08-07T10:24:58.179Z,48.42
2022-08-07T10:30:00.152Z,46.76
2022-08-07T10:35:55.699Z,44.52
2022-08-07T10:40:35.690Z,42.39
2022-08-07T10:45:44.862Z,41.01
2022-08-07T10:50:40.834Z,40.10
2022-08-07T10:55:41.355Z,39.28
2022-08-07T11:00:43.446Z,38.63
2022-08-07T11:05:49.233Z,37.93
2022-08-07T11:10:48.722Z,37.01
2022-08-07T11:15:54.557Z,35.83
2022-08-07T11:20:49.321Z,34.58
2022-08-07T11:25:50.309Z,33.39
2022-08-07T11:30:51.013Z,32.23
2022-08-07T11:35:59.793Z,31.33
2022-08-07T11:40:54.284Z,30.63
2022-08-07T11:45:56.275Z,30.13
2022-08-07T11:50:57.832Z,29.71
2022-08-07T11:56:15.706Z,29.12
2022-08-07T12:01:04.442Z,28.49
2022-08-07T12:06:02.554Z,28.09
2022-08-07T12:11:20.380Z,27.83
2022-08-07T12:16:09.133Z,27.64
2022-08-07T12:21:08.293Z,27.49
2022-08-07T12:26:29.127Z,27.37
2022-08-07T12:31:10.367Z,27.23
2022-08-07T12:36:12.733Z,27.06
2022-08-07T12:41:12.374Z,26.87
2022-08-07T12:46:15.973Z,26.68
2022-08-07T12:51:17.630Z,26.53
2022-08-07T12:56:17.360Z,26.42
2022-08-07T13:01:18.475Z,26.35
2022-08-07T13:06:26.869Z,26.28
2022-08-07T13:11:20.785Z,26.22
2022-08-07T13:16:25.391Z,26.18
2022-08-07T13:21:51.164Z,26.17
2022-08-07T13:26:27.393Z,26.16
2022-08-07T13:31:32.089Z,26.16
2022-08-07T13:36:30.445Z,26.13
2022-08-07T13:41:32.363Z,26.05
2022-08-07T13:46:37.688Z,25.98
2022-08-07T13:52:23.076Z,25.97
2022-08-07T13:56:41.414Z,25.98
2022-08-07T14:01:51.480Z,26.02
2022-08-07T14:06:43.227Z,26.07
2022-08-07T14:11:53.140Z,26.08
2022-08-07T14:16:50.016Z,26.04
2022-08-07T14:22:04.222Z,26.03
2022-08-07T14:26:51.074Z,26.04
2022-08-07T14:31:56.130Z,26.07
2022-08-07T14:36:56.411Z,26.11
2022-08-07T14:42:18.683Z,26.14
2022-08-07T14:47:08.467Z,26.14
2022-08-07T14:57:02.117Z,26.09
2022-08-07T15:02:02.484Z,26.11
2022-08-07T15:07:02.519Z,26.12
2022-08-07T15:12:04.504Z,26.14
2022-08-07T15:17:06.500Z,26.12
2022-08-07T15:22:16.435Z,26.07
2022-08-07T15:27:10.767Z,26.05
2022-08-07T15:32:12.469Z,26.05
2022-08-07T15:37:12.485Z,26.05
2022-08-07T15:42:44.858Z,26.04
2022-08-07T15:47:18.152Z,26.01
2022-08-07T15:52:20.513Z,25.98
2022-08-07T15:57:39.281Z,25.97
2022-08-07T16:02:22.603Z,25.94
2022-08-07T16:08:30.741Z,25.91
2022-08-07T16:12:29.905Z,25.92
2022-08-07T16:18:01.577Z,25.93
2022-08-07T16:22:54.957Z,25.92
2022-08-07T16:27:40.328Z,25.88
2022-08-07T16:32:37.679Z,25.83
2022-08-07T16:38:03.965Z,25.77
2022-08-07T16:42:41.589Z,25.71
2022-08-07T16:47:51.602Z,25.67
2022-08-07T16:52:55.708Z,25.65
2022-08-07T16:58:03.511Z,25.59
2022-08-07T17:02:52.445Z,25.54
2022-08-07T17:07:57.842Z,25.52
2022-08-07T17:12:53.979Z,25.48
2022-08-07T17:17:54.125Z,25.42
2022-08-07T17:22:54.521Z,25.39
2022-08-07T17:27:56.586Z,25.37
2022-08-07T17:32:57.926Z,25.28
2022-08-07T17:38:09.816Z,25.16
2022-08-07T17:43:01.575Z,25.05
2022-08-07T17:48:01.583Z,24.95
2022-08-07T17:53:03.691Z,24.83
2022-08-07T17:58:05.583Z,24.71
2022-08-07T18:03:09.487Z,24.58
2022-08-07T18:08:11.648Z,24.42
2022-08-07T18:13:10.105Z,24.28
2022-08-07T18:18:46.176Z,24.13
2022-08-07T18:23:42.335Z,23.95
2022-08-07T18:28:21.553Z,23.75
2022-08-07T18:33:16.671Z,23.51
2022-08-07T18:38:56.829Z,23.26
2022-08-07T18:43:19.812Z,23.01
2022-08-07T18:50:05.179Z,22.82
2022-08-07T18:53:37.066Z,22.66
2022-08-07T18:58:29.182Z,22.51
2022-08-07T19:03:37.724Z,22.36
2022-08-07T19:08:32.759Z,22.22
2022-08-07T19:13:32.627Z,22.10
2022-08-07T19:18:34.128Z,21.98
2022-08-07T19:23:59.231Z,21.86
2022-08-07T19:30:56.359Z,21.74
2022-08-07T19:33:38.758Z,21.61
2022-08-07T19:38:52.897Z,21.50
2022-08-07T19:43:51.948Z,21.39
2022-08-07T19:48:53.825Z,21.28
2022-08-07T19:54:35.609Z,21.14
2022-08-07T19:58:50.690Z,20.99
2022-08-07T20:03:52.800Z,20.85
2022-08-07T20:08:56.522Z,20.72
2022-08-07T20:14:05.594Z,20.59
2022-08-07T20:19:10.127Z,20.45
2022-08-07T20:24:10.685Z,20.30
2022-08-07T20:29:47.133Z,20.14
2022-08-07T20:34:14.779Z,19.99
2022-08-07T20:40:01.361Z,19.87
2022-08-07T20:44:18.726Z,19.79
2022-08-07T20:49:58.423Z,19.72
2022-08-07T20:54:30.073Z,19.66
2022-08-07T21:00:07.756Z,19.60
2022-08-07T21:04:30.758Z,19.55
2022-08-07T21:09:30.799Z,19.48
2022-08-07T21:14:34.841Z,19.36
2022-08-07T21:20:00.796Z,19.24
2022-08-07T21:24:36.764Z,19.13
2022-08-07T21:29:39.010Z,19.06
2022-08-07T21:34:46.134Z,19.02
2022-08-07T21:39:47.459Z,18.96
2022-08-07T21:44:44.290Z,18.89
2022-08-07T21:50:02.348Z,18.80
2022-08-07T21:54:48.255Z,18.68
2022-08-07T22:00:04.073Z,18.56
2022-08-07T22:04:51.138Z,18.43
2022-08-07T22:09:54.140Z,18.32
2022-08-07T22:14:59.526Z,18.21
2022-08-07T22:19:57.231Z,18.11
2022-08-07T22:24:59.745Z,18.01
2022-08-07T22:29:59.830Z,17.92
2022-08-07T22:34:59.883Z,17.83
2022-08-07T22:39:59.904Z,17.74
2022-08-07T22:45:02.489Z,17.67
2022-08-07T22:50:04.267Z,17.64
2022-08-07T22:55:14.921Z,17.64
2022-08-07T23:00:06.480Z,17.64
2022-08-07T23:06:07.307Z,17.60
2022-08-07T23:10:38.481Z,17.54
2022-08-07T23:15:11.932Z,17.49
2022-08-07T23:20:51.485Z,17.45
2022-08-07T23:25:28.677Z,17.47
2022-08-07T23:30:38.524Z,17.53
2022-08-07T23:35:29.873Z,17.55
2022-08-07T23:40:31.886Z,17.54
2022-08-07T23:45:49.959Z,17.52
2022-08-07T23:50:33.904Z,17.51
2022-08-07T23:55:51.946Z,17.54
